sensor_id;sensor_type;location;lat;lon;timestamp;P1;durP1;ratioP1;P2;durP2;ratioP2
81996;SDS011;71500;50.806;8.774;2024-03-08T00:02:14;20.00;;;13.70;;
81996;SDS011;71500;50.806;8.774;2024-03-08T00:04:45;18.80;;;12.50;;
81996;SDS011;71500;50.806;8.774;2024-03-08T00:07:17;18.40;;;12.60;;
81996;SDS011;71500;50.806;8.774;2024-03-08T00:09:48;21.50;;;13.30;;
81996;SDS011;71500;50.806;8.774;2024-03-08T00:12:19;20.60;;;14.20;;
81996;SDS011;71500;50.806;8.774;2024-03-08T00:14:51;18.20;;;12.80;;
81996;SDS011;71500;50.806;8.774;2024-03-08T00:17:23;20.20;;;14.20;;
81996;SDS011;71500;50.806;8.774;2024-03-08T00:19:56;18.50;;;12.30;;
81996;SDS011;71500;50.806;8.774;2024-03-08T00:22:28;20.10;;;13.60;;
81996;SDS011;71500;50.806;8.774;2024-03-08T00:24:59;18.40;;;12.20;;
81996;SDS011;71500;50.806;8.774;2024-03-08T00:27:31;17.80;;;12.50;;
81996;SDS011;71500;50.806;8.774;2024-03-08T00:30:02;18.20;;;12.60;;
81996;SDS011;71500;50.806;8.774;2024-03-08T00:32:35;19.20;;;12.50;;
81996;SDS011;71500;50.806;8.774;2024-03-08T00:35:08;19.30;;;12.30;;
81996;SDS011;71500;50.806;8.774;2024-03-08T00:37:41;19.40;;;14.20;;
81996;SDS011;71500;50.806;8.774;2024-03-08T00:40:15;19.30;;;12.90;;
81996;SDS011;71500;50.806;8.774;2024-03-08T00:42:47;21.30;;;12.40;;
81996;SDS011;71500;50.806;8.774;2024-03-08T00:45:18;18.80;;;12.80;;
81996;SDS011;71500;50.806;8.774;2024-03-08T00:47:50;20.00;;;12.90;;
81996;SDS011;71500;50.806;8.774;2024-03-08T00:50:23;19.00;;;13.70;;
81996;SDS011;71500;50.806;8.774;2024-03-08T00:52:54;21.20;;;13.00;;
81996;SDS011;71500;50.806;8.774;2024-03-08T00:55:25;19.00;;;12.80;;
81996;SDS011;71500;50.806;8.774;2024-03-08T00:57:58;20.30;;;13.20;;
81996;SDS011;71500;50.806;8.774;2024-03-08T01:00:30;22.40;;;12.80;;
81996;SDS011;71500;50.806;8.774;2024-03-08T01:03:01;20.40;;;13.50;;
81996;SDS011;71500;50.806;8.774;2024-03-08T01:05:34;21.60;;;13.80;;
81996;SDS011;71500;50.806;8.774;2024-03-08T01:08:06;20.80;;;13.00;;
81996;SDS011;71500;50.806;8.774;2024-03-08T01:10:40;21.10;;;14.00;;
81996;SDS011;71500;50.806;8.774;2024-03-08T01:13:12;19.40;;;13.10;;
81996;SDS011;71500;50.806;8.774;2024-03-08T01:15:43;20.00;;;13.00;;
81996;SDS011;71500;50.806;8.774;2024-03-08T01:18:14;22.00;;;14.60;;
81996;SDS011;71500;50.806;8.774;2024-03-08T01:20:46;15.40;;;10.80;;
81996;SDS011;71500;50.806;8.774;2024-03-08T01:23:17;16.20;;;10.70;;
81996;SDS011;71500;50.806;8.774;2024-03-08T01:25:49;18.90;;;11.70;;
81996;SDS011;71500;50.806;8.774;2024-03-08T01:28:25;20.00;;;12.40;;
81996;SDS011;71500;50.806;8.774;2024-03-08T01:30:57;16.40;;;12.20;;
81996;SDS011;71500;50.806;8.774;2024-03-08T01:33:28;18.00;;;11.70;;
81996;SDS011;71500;50.806;8.774;2024-03-08T01:36:00;17.30;;;11.30;;
81996;SDS011;71500;50.806;8.774;2024-03-08T01:38:32;17.20;;;12.10;;
81996;SDS011;71500;50.806;8.774;2024-03-08T01:41:04;18.10;;;11.50;;
81996;SDS011;71500;50.806;8.774;2024-03-08T01:43:36;20.30;;;12.30;;
81996;SDS011;71500;50.806;8.774;2024-03-08T01:46:07;16.80;;;10.50;;
81996;SDS011;71500;50.806;8.774;2024-03-08T01:48:41;17.60;;;11.80;;
81996;SDS011;71500;50.806;8.774;2024-03-08T01:51:14;18.60;;;10.90;;
81996;SDS011;71500;50.806;8.774;2024-03-08T01:53:46;17.60;;;11.40;;
81996;SDS011;71500;50.806;8.774;2024-03-08T01:56:18;20.40;;;11.10;;
81996;SDS011;71500;50.806;8.774;2024-03-08T01:58:49;19.80;;;14.10;;
81996;SDS011;71500;50.806;8.774;2024-03-08T02:01:21;16.40;;;10.70;;
81996;SDS011;71500;50.806;8.774;2024-03-08T02:03:53;18.10;;;11.60;;
81996;SDS011;71500;50.806;8.774;2024-03-08T02:06:24;17.60;;;11.20;;
81996;SDS011;71500;50.806;8.774;2024-03-08T02:08:56;18.70;;;12.00;;
81996;SDS011;71500;50.806;8.774;2024-03-08T02:11:28;18.00;;;10.80;;
81996;SDS011;71500;50.806;8.774;2024-03-08T02:13:59;17.60;;;12.10;;
81996;SDS011;71500;50.806;8.774;2024-03-08T02:16:30;14.70;;;10.60;;
81996;SDS011;71500;50.806;8.774;2024-03-08T02:19:02;17.50;;;11.40;;
81996;SDS011;71500;50.806;8.774;2024-03-08T02:21:34;19.20;;;12.50;;
81996;SDS011;71500;50.806;8.774;2024-03-08T02:24:06;17.90;;;11.00;;
81996;SDS011;71500;50.806;8.774;2024-03-08T02:26:38;20.10;;;12.50;;
81996;SDS011;71500;50.806;8.774;2024-03-08T02:29:11;19.20;;;12.40;;
81996;SDS011;71500;50.806;8.774;2024-03-08T02:31:43;18.20;;;11.80;;
81996;SDS011;71500;50.806;8.774;2024-03-08T02:34:14;18.50;;;12.40;;
81996;SDS011;71500;50.806;8.774;2024-03-08T02:36:46;18.30;;;10.80;;
81996;SDS011;71500;50.806;8.774;2024-03-08T02:39:17;18.90;;;11.80;;
81996;SDS011;71500;50.806;8.774;2024-03-08T02:41:49;18.60;;;11.30;;
81996;SDS011;71500;50.806;8.774;2024-03-08T02:44:20;15.70;;;9.90;;
81996;SDS011;71500;50.806;8.774;2024-03-08T02:46:52;16.50;;;10.10;;
81996;SDS011;71500;50.806;8.774;2024-03-08T02:49:24;18.30;;;11.50;;
81996;SDS011;71500;50.806;8.774;2024-03-08T02:51:56;18.10;;;10.20;;
81996;SDS011;71500;50.806;8.774;2024-03-08T02:54:27;18.60;;;11.20;;
81996;SDS011;71500;50.806;8.774;2024-03-08T02:56:58;20.20;;;11.60;;
81996;SDS011;71500;50.806;8.774;2024-03-08T02:59:30;18.00;;;11.50;;
81996;SDS011;71500;50.806;8.774;2024-03-08T03:02:02;18.50;;;11.40;;
81996;SDS011;71500;50.806;8.774;2024-03-08T03:04:33;17.90;;;11.20;;
81996;SDS011;71500;50.806;8.774;2024-03-08T03:07:04;20.50;;;13.10;;
81996;SDS011;71500;50.806;8.774;2024-03-08T03:09:36;20.10;;;12.00;;
81996;SDS011;71500;50.806;8.774;2024-03-08T03:12:07;20.70;;;14.00;;
81996;SDS011;71500;50.806;8.774;2024-03-08T03:14:39;16.60;;;10.00;;
81996;SDS011;71500;50.806;8.774;2024-03-08T03:17:10;18.10;;;11.10;;
81996;SDS011;71500;50.806;8.774;2024-03-08T03:19:41;21.80;;;12.80;;
81996;SDS011;71500;50.806;8.774;2024-03-08T03:22:13;28.30;;;14.20;;
81996;SDS011;71500;50.806;8.774;2024-03-08T03:24:45;25.70;;;14.40;;
81996;SDS011;71500;50.806;8.774;2024-03-08T03:27:17;16.90;;;11.40;;
81996;SDS011;71500;50.806;8.774;2024-03-08T03:29:48;18.70;;;12.00;;
81996;SDS011;71500;50.806;8.774;2024-03-08T03:32:20;24.00;;;12.60;;
81996;SDS011;71500;50.806;8.774;2024-03-08T03:34:52;24.60;;;12.60;;
81996;SDS011;71500;50.806;8.774;2024-03-08T03:37:23;19.30;;;11.60;;
81996;SDS011;71500;50.806;8.774;2024-03-08T03:39:54;17.60;;;12.00;;
81996;SDS011;71500;50.806;8.774;2024-03-08T03:42:26;19.40;;;11.20;;
81996;SDS011;71500;50.806;8.774;2024-03-08T03:44:57;15.00;;;11.20;;
81996;SDS011;71500;50.806;8.774;2024-03-08T03:47:29;14.10;;;9.90;;
81996;SDS011;71500;50.806;8.774;2024-03-08T03:50:00;16.60;;;11.60;;
81996;SDS011;71500;50.806;8.774;2024-03-08T03:52:32;13.70;;;10.00;;
81996;SDS011;71500;50.806;8.774;2024-03-08T03:55:04;14.40;;;9.30;;
81996;SDS011;71500;50.806;8.774;2024-03-08T03:57:36;13.40;;;9.70;;
81996;SDS011;71500;50.806;8.774;2024-03-08T04:00:09;18.00;;;12.30;;
81996;SDS011;71500;50.806;8.774;2024-03-08T04:02:41;17.10;;;11.00;;
81996;SDS011;71500;50.806;8.774;2024-03-08T04:05:13;17.10;;;12.20;;
81996;SDS011;71500;50.806;8.774;2024-03-08T04:07:45;16.80;;;11.60;;
81996;SDS011;71500;50.806;8.774;2024-03-08T04:10:17;19.90;;;12.70;;
81996;SDS011;71500;50.806;8.774;2024-03-08T04:12:48;16.90;;;10.50;;
81996;SDS011;71500;50.806;8.774;2024-03-08T04:15:20;18.00;;;11.20;;
81996;SDS011;71500;50.806;8.774;2024-03-08T04:17:51;15.80;;;10.80;;
81996;SDS011;71500;50.806;8.774;2024-03-08T04:20:23;18.70;;;13.00;;
81996;SDS011;71500;50.806;8.774;2024-03-08T04:22:55;16.10;;;10.50;;
81996;SDS011;71500;50.806;8.774;2024-03-08T04:25:26;18.10;;;10.90;;
81996;SDS011;71500;50.806;8.774;2024-03-08T04:27:57;20.40;;;12.20;;
81996;SDS011;71500;50.806;8.774;2024-03-08T04:30:29;20.10;;;11.90;;
81996;SDS011;71500;50.806;8.774;2024-03-08T04:33:00;16.50;;;10.90;;
81996;SDS011;71500;50.806;8.774;2024-03-08T04:35:32;18.60;;;11.90;;
81996;SDS011;71500;50.806;8.774;2024-03-08T04:38:04;18.90;;;12.40;;
81996;SDS011;71500;50.806;8.774;2024-03-08T04:40:35;15.70;;;10.30;;
81996;SDS011;71500;50.806;8.774;2024-03-08T04:43:06;15.80;;;10.30;;
81996;SDS011;71500;50.806;8.774;2024-03-08T04:45:39;18.90;;;11.90;;
81996;SDS011;71500;50.806;8.774;2024-03-08T04:48:12;18.30;;;10.70;;
81996;SDS011;71500;50.806;8.774;2024-03-08T04:50:44;17.20;;;10.50;;
81996;SDS011;71500;50.806;8.774;2024-03-08T04:53:15;16.90;;;11.40;;
81996;SDS011;71500;50.806;8.774;2024-03-08T04:55:46;20.80;;;11.80;;
81996;SDS011;71500;50.806;8.774;2024-03-08T04:58:18;16.80;;;10.80;;
81996;SDS011;71500;50.806;8.774;2024-03-08T05:00:50;18.80;;;11.80;;
81996;SDS011;71500;50.806;8.774;2024-03-08T05:03:21;18.20;;;11.70;;
81996;SDS011;71500;50.806;8.774;2024-03-08T05:05:55;18.10;;;11.00;;
81996;SDS011;71500;50.806;8.774;2024-03-08T05:08:27;16.90;;;11.80;;
81996;SDS011;71500;50.806;8.774;2024-03-08T05:10:58;18.40;;;11.80;;
81996;SDS011;71500;50.806;8.774;2024-03-08T05:13:32;21.00;;;12.20;;
81996;SDS011;71500;50.806;8.774;2024-03-08T05:16:04;16.50;;;10.90;;
81996;SDS011;71500;50.806;8.774;2024-03-08T05:18:36;19.40;;;12.30;;
81996;SDS011;71500;50.806;8.774;2024-03-08T05:21:07;19.70;;;13.20;;
81996;SDS011;71500;50.806;8.774;2024-03-08T05:23:39;16.10;;;10.80;;
81996;SDS011;71500;50.806;8.774;2024-03-08T05:26:10;18.80;;;12.30;;
81996;SDS011;71500;50.806;8.774;2024-03-08T05:28:42;18.50;;;12.50;;
81996;SDS011;71500;50.806;8.774;2024-03-08T05:31:18;19.70;;;11.70;;
81996;SDS011;71500;50.806;8.774;2024-03-08T05:33:51;16.50;;;10.50;;
81996;SDS011;71500;50.806;8.774;2024-03-08T05:36:24;19.70;;;11.70;;
81996;SDS011;71500;50.806;8.774;2024-03-08T05:38:55;16.60;;;10.70;;
81996;SDS011;71500;50.806;8.774;2024-03-08T05:41:27;19.40;;;12.10;;
81996;SDS011;71500;50.806;8.774;2024-03-08T05:43:58;17.80;;;11.60;;
81996;SDS011;71500;50.806;8.774;2024-03-08T05:46:29;21.40;;;13.20;;
81996;SDS011;71500;50.806;8.774;2024-03-08T05:49:01;21.40;;;12.80;;
81996;SDS011;71500;50.806;8.774;2024-03-08T05:51:34;15.80;;;11.00;;
81996;SDS011;71500;50.806;8.774;2024-03-08T05:54:08;22.30;;;11.80;;
81996;SDS011;71500;50.806;8.774;2024-03-08T05:56:44;26.30;;;15.80;;
81996;SDS011;71500;50.806;8.774;2024-03-08T05:59:16;22.50;;;12.00;;
81996;SDS011;71500;50.806;8.774;2024-03-08T06:01:48;21.50;;;11.10;;
81996;SDS011;71500;50.806;8.774;2024-03-08T06:04:19;20.00;;;11.70;;
81996;SDS011;71500;50.806;8.774;2024-03-08T06:06:50;17.20;;;11.30;;
81996;SDS011;71500;50.806;8.774;2024-03-08T06:09:24;16.50;;;10.70;;
81996;SDS011;71500;50.806;8.774;2024-03-08T06:11:55;18.60;;;13.10;;
81996;SDS011;71500;50.806;8.774;2024-03-08T06:14:27;19.00;;;11.80;;
81996;SDS011;71500;50.806;8.774;2024-03-08T06:16:58;18.20;;;11.40;;
81996;SDS011;71500;50.806;8.774;2024-03-08T06:19:30;18.80;;;11.90;;
81996;SDS011;71500;50.806;8.774;2024-03-08T06:22:02;18.90;;;11.70;;
81996;SDS011;71500;50.806;8.774;2024-03-08T06:24:34;18.50;;;13.40;;
81996;SDS011;71500;50.806;8.774;2024-03-08T06:27:06;18.10;;;10.70;;
81996;SDS011;71500;50.806;8.774;2024-03-08T06:29:38;22.50;;;12.90;;
81996;SDS011;71500;50.806;8.774;2024-03-08T06:32:10;19.60;;;13.50;;
81996;SDS011;71500;50.806;8.774;2024-03-08T06:34:44;22.70;;;14.50;;
81996;SDS011;71500;50.806;8.774;2024-03-08T06:37:15;21.40;;;13.90;;
81996;SDS011;71500;50.806;8.774;2024-03-08T06:39:50;20.40;;;12.80;;
81996;SDS011;71500;50.806;8.774;2024-03-08T06:42:23;22.60;;;13.50;;
81996;SDS011;71500;50.806;8.774;2024-03-08T06:44:55;19.30;;;13.20;;
81996;SDS011;71500;50.806;8.774;2024-03-08T06:47:33;20.70;;;13.00;;
81996;SDS011;71500;50.806;8.774;2024-03-08T06:50:05;20.10;;;12.70;;
81996;SDS011;71500;50.806;8.774;2024-03-08T06:52:37;24.00;;;14.20;;
81996;SDS011;71500;50.806;8.774;2024-03-08T06:55:11;21.30;;;15.10;;
81996;SDS011;71500;50.806;8.774;2024-03-08T06:57:42;22.70;;;14.00;;
81996;SDS011;71500;50.806;8.774;2024-03-08T07:00:14;22.40;;;14.30;;
81996;SDS011;71500;50.806;8.774;2024-03-08T07:02:49;22.40;;;13.90;;
81996;SDS011;71500;50.806;8.774;2024-03-08T07:05:22;19.20;;;13.10;;
81996;SDS011;71500;50.806;8.774;2024-03-08T07:07:57;22.30;;;14.40;;
81996;SDS011;71500;50.806;8.774;2024-03-08T07:10:28;19.90;;;13.50;;
81996;SDS011;71500;50.806;8.774;2024-03-08T07:13:00;18.70;;;12.40;;
81996;SDS011;71500;50.806;8.774;2024-03-08T07:15:31;22.20;;;13.50;;
81996;SDS011;71500;50.806;8.774;2024-03-08T07:18:04;22.50;;;13.80;;
81996;SDS011;71500;50.806;8.774;2024-03-08T07:20:37;21.00;;;13.10;;
81996;SDS011;71500;50.806;8.774;2024-03-08T07:23:09;23.40;;;15.20;;
81996;SDS011;71500;50.806;8.774;2024-03-08T07:26:00;17.90;;;12.00;;
81996;SDS011;71500;50.806;8.774;2024-03-08T07:28:32;21.90;;;14.90;;
81996;SDS011;71500;50.806;8.774;2024-03-08T07:31:04;22.40;;;13.90;;
81996;SDS011;71500;50.806;8.774;2024-03-08T07:33:50;18.70;;;11.60;;
81996;SDS011;71500;50.806;8.774;2024-03-08T07:36:22;24.70;;;14.70;;
81996;SDS011;71500;50.806;8.774;2024-03-08T07:38:53;20.80;;;13.30;;
81996;SDS011;71500;50.806;8.774;2024-03-08T07:41:25;20.70;;;13.10;;
81996;SDS011;71500;50.806;8.774;2024-03-08T07:43:57;23.30;;;13.60;;
81996;SDS011;71500;50.806;8.774;2024-03-08T07:46:32;20.90;;;14.00;;
81996;SDS011;71500;50.806;8.774;2024-03-08T07:49:03;27.40;;;15.50;;
81996;SDS011;71500;50.806;8.774;2024-03-08T07:51:39;21.90;;;14.50;;
81996;SDS011;71500;50.806;8.774;2024-03-08T07:54:11;21.00;;;13.40;;
81996;SDS011;71500;50.806;8.774;2024-03-08T07:56:42;20.50;;;14.20;;
81996;SDS011;71500;50.806;8.774;2024-03-08T07:59:15;25.10;;;13.90;;
81996;SDS011;71500;50.806;8.774;2024-03-08T08:01:47;18.00;;;12.40;;
81996;SDS011;71500;50.806;8.774;2024-03-08T08:04:18;22.20;;;13.80;;
81996;SDS011;71500;50.806;8.774;2024-03-08T08:06:53;23.40;;;14.10;;
81996;SDS011;71500;50.806;8.774;2024-03-08T08:09:26;20.20;;;13.70;;
81996;SDS011;71500;50.806;8.774;2024-03-08T08:12:03;23.30;;;13.00;;
81996;SDS011;71500;50.806;8.774;2024-03-08T08:17:06;16.00;;;11.90;;
81996;SDS011;71500;50.806;8.774;2024-03-08T08:19:40;22.70;;;13.10;;
81996;SDS011;71500;50.806;8.774;2024-03-08T08:22:12;19.80;;;12.50;;
81996;SDS011;71500;50.806;8.774;2024-03-08T08:24:43;20.40;;;13.80;;
81996;SDS011;71500;50.806;8.774;2024-03-08T08:27:14;23.50;;;14.40;;
81996;SDS011;71500;50.806;8.774;2024-03-08T08:29:46;20.00;;;13.00;;
81996;SDS011;71500;50.806;8.774;2024-03-08T08:32:18;22.60;;;14.30;;
81996;SDS011;71500;50.806;8.774;2024-03-08T08:34:49;21.00;;;14.70;;
81996;SDS011;71500;50.806;8.774;2024-03-08T08:37:21;20.20;;;13.00;;
81996;SDS011;71500;50.806;8.774;2024-03-08T08:39:54;19.30;;;12.60;;
81996;SDS011;71500;50.806;8.774;2024-03-08T08:42:25;19.30;;;13.20;;
81996;SDS011;71500;50.806;8.774;2024-03-08T08:44:57;18.60;;;13.50;;
81996;SDS011;71500;50.806;8.774;2024-03-08T08:47:43;21.40;;;12.70;;
81996;SDS011;71500;50.806;8.774;2024-03-08T08:50:16;17.60;;;13.40;;
81996;SDS011;71500;50.806;8.774;2024-03-08T08:52:52;19.00;;;11.80;;
81996;SDS011;71500;50.806;8.774;2024-03-08T08:55:24;21.10;;;13.30;;
81996;SDS011;71500;50.806;8.774;2024-03-08T08:57:56;21.10;;;14.60;;
81996;SDS011;71500;50.806;8.774;2024-03-08T09:00:27;19.70;;;13.20;;
81996;SDS011;71500;50.806;8.774;2024-03-08T09:02:59;21.70;;;14.10;;
81996;SDS011;71500;50.806;8.774;2024-03-08T09:05:31;19.70;;;13.60;;
81996;SDS011;71500;50.806;8.774;2024-03-08T09:08:07;18.70;;;12.20;;
81996;SDS011;71500;50.806;8.774;2024-03-08T09:10:39;17.70;;;13.40;;
81996;SDS011;71500;50.806;8.774;2024-03-08T09:13:10;20.90;;;13.30;;
81996;SDS011;71500;50.806;8.774;2024-03-08T09:15:59;19.10;;;12.30;;
81996;SDS011;71500;50.806;8.774;2024-03-08T09:18:31;17.00;;;12.30;;
81996;SDS011;71500;50.806;8.774;2024-03-08T09:21:04;22.40;;;12.50;;
81996;SDS011;71500;50.806;8.774;2024-03-08T09:23:39;21.20;;;15.40;;
81996;SDS011;71500;50.806;8.774;2024-03-08T09:26:12;18.90;;;12.90;;
81996;SDS011;71500;50.806;8.774;2024-03-08T09:28:56;16.50;;;12.40;;
81996;SDS011;71500;50.806;8.774;2024-03-08T09:31:28;19.00;;;12.70;;
81996;SDS011;71500;50.806;8.774;2024-03-08T09:34:00;18.40;;;12.40;;
81996;SDS011;71500;50.806;8.774;2024-03-08T09:36:31;20.40;;;12.40;;
81996;SDS011;71500;50.806;8.774;2024-03-08T09:39:02;18.70;;;12.20;;
81996;SDS011;71500;50.806;8.774;2024-03-08T09:41:36;19.30;;;11.80;;
81996;SDS011;71500;50.806;8.774;2024-03-08T09:44:08;18.20;;;13.30;;
81996;SDS011;71500;50.806;8.774;2024-03-08T09:46:39;18.50;;;11.20;;
81996;SDS011;71500;50.806;8.774;2024-03-08T09:49:11;17.70;;;11.70;;
81996;SDS011;71500;50.806;8.774;2024-03-08T09:51:42;17.70;;;11.60;;
81996;SDS011;71500;50.806;8.774;2024-03-08T09:54:14;14.90;;;9.80;;
81996;SDS011;71500;50.806;8.774;2024-03-08T09:56:52;16.90;;;12.00;;
81996;SDS011;71500;50.806;8.774;2024-03-08T09:59:23;15.80;;;10.90;;
81996;SDS011;71500;50.806;8.774;2024-03-08T10:02:10;18.20;;;13.10;;
81996;SDS011;71500;50.806;8.774;2024-03-08T10:04:45;17.10;;;11.20;;
81996;SDS011;71500;50.806;8.774;2024-03-08T10:07:17;18.60;;;12.90;;
81996;SDS011;71500;50.806;8.774;2024-03-08T10:09:48;17.90;;;12.00;;
81996;SDS011;71500;50.806;8.774;2024-03-08T10:12:23;19.20;;;11.40;;
81996;SDS011;71500;50.806;8.774;2024-03-08T10:14:55;20.80;;;12.80;;
81996;SDS011;71500;50.806;8.774;2024-03-08T10:17:28;17.00;;;12.70;;
81996;SDS011;71500;50.806;8.774;2024-03-08T10:20:01;17.00;;;10.90;;
81996;SDS011;71500;50.806;8.774;2024-03-08T10:22:44;18.80;;;13.40;;
81996;SDS011;71500;50.806;8.774;2024-03-08T10:25:36;19.90;;;13.50;;
81996;SDS011;71500;50.806;8.774;2024-03-08T10:28:08;18.10;;;11.70;;
81996;SDS011;71500;50.806;8.774;2024-03-08T10:30:39;17.00;;;11.60;;
81996;SDS011;71500;50.806;8.774;2024-03-08T10:33:18;18.30;;;13.30;;
81996;SDS011;71500;50.806;8.774;2024-03-08T10:35:50;15.60;;;10.60;;
81996;SDS011;71500;50.806;8.774;2024-03-08T10:38:22;15.80;;;10.80;;
81996;SDS011;71500;50.806;8.774;2024-03-08T10:40:55;14.50;;;8.50;;
81996;SDS011;71500;50.806;8.774;2024-03-08T10:43:27;15.00;;;8.90;;
81996;SDS011;71500;50.806;8.774;2024-03-08T10:46:10;15.90;;;10.80;;
81996;SDS011;71500;50.806;8.774;2024-03-08T10:48:51;16.70;;;11.40;;
81996;SDS011;71500;50.806;8.774;2024-03-08T10:51:27;18.00;;;11.90;;
81996;SDS011;71500;50.806;8.774;2024-03-08T10:54:00;17.30;;;10.90;;
81996;SDS011;71500;50.806;8.774;2024-03-08T10:56:33;14.10;;;8.90;;
81996;SDS011;71500;50.806;8.774;2024-03-08T10:59:05;15.80;;;10.30;;
81996;SDS011;71500;50.806;8.774;2024-03-08T11:04:08;13.10;;;8.50;;
81996;SDS011;71500;50.806;8.774;2024-03-08T11:06:44;13.10;;;9.70;;
81996;SDS011;71500;50.806;8.774;2024-03-08T11:09:29;16.80;;;9.70;;
81996;SDS011;71500;50.806;8.774;2024-03-08T11:14:51;12.90;;;8.90;;
81996;SDS011;71500;50.806;8.774;2024-03-08T11:17:39;14.90;;;9.10;;
81996;SDS011;71500;50.806;8.774;2024-03-08T11:20:15;12.00;;;9.10;;
81996;SDS011;71500;50.806;8.774;2024-03-08T11:22:51;16.40;;;9.10;;
81996;SDS011;71500;50.806;8.774;2024-03-08T11:25:37;14.20;;;9.30;;
81996;SDS011;71500;50.806;8.774;2024-03-08T11:28:14;13.80;;;9.80;;
81996;SDS011;71500;50.806;8.774;2024-03-08T11:33:57;14.50;;;8.90;;
81996;SDS011;71500;50.806;8.774;2024-03-08T11:36:29;12.10;;;9.10;;
81996;SDS011;71500;50.806;8.774;2024-03-08T11:39:05;14.80;;;9.80;;
81996;SDS011;71500;50.806;8.774;2024-03-08T11:41:43;14.10;;;9.70;;
81996;SDS011;71500;50.806;8.774;2024-03-08T11:44:15;15.20;;;9.60;;
81996;SDS011;71500;50.806;8.774;2024-03-08T11:46:47;14.10;;;9.50;;
81996;SDS011;71500;50.806;8.774;2024-03-08T11:49:18;16.00;;;10.80;;
81996;SDS011;71500;50.806;8.774;2024-03-08T11:51:52;13.90;;;9.40;;
81996;SDS011;71500;50.806;8.774;2024-03-08T11:54:24;14.40;;;9.50;;
81996;SDS011;71500;50.806;8.774;2024-03-08T11:56:56;16.00;;;9.40;;
81996;SDS011;71500;50.806;8.774;2024-03-08T11:59:30;11.40;;;7.40;;
81996;SDS011;71500;50.806;8.774;2024-03-08T12:02:03;13.30;;;9.00;;
81996;SDS011;71500;50.806;8.774;2024-03-08T12:04:35;15.30;;;9.60;;
81996;SDS011;71500;50.806;8.774;2024-03-08T12:07:09;15.50;;;10.70;;
81996;SDS011;71500;50.806;8.774;2024-03-08T12:09:43;13.30;;;8.90;;
81996;SDS011;71500;50.806;8.774;2024-03-08T12:12:41;12.30;;;8.50;;
81996;SDS011;71500;50.806;8.774;2024-03-08T12:15:13;12.60;;;7.70;;
81996;SDS011;71500;50.806;8.774;2024-03-08T12:17:47;16.10;;;9.80;;
81996;SDS011;71500;50.806;8.774;2024-03-08T12:20:21;14.00;;;9.70;;
81996;SDS011;71500;50.806;8.774;2024-03-08T12:22:54;12.10;;;8.80;;
81996;SDS011;71500;50.806;8.774;2024-03-08T12:28:10;14.50;;;8.70;;
81996;SDS011;71500;50.806;8.774;2024-03-08T12:30:46;11.40;;;7.40;;
81996;SDS011;71500;50.806;8.774;2024-03-08T12:33:19;12.40;;;7.90;;
81996;SDS011;71500;50.806;8.774;2024-03-08T12:35:52;13.40;;;8.20;;
81996;SDS011;71500;50.806;8.774;2024-03-08T12:38:28;12.10;;;8.10;;
81996;SDS011;71500;50.806;8.774;2024-03-08T12:41:01;13.10;;;8.60;;
81996;SDS011;71500;50.806;8.774;2024-03-08T12:43:33;11.90;;;7.90;;
81996;SDS011;71500;50.806;8.774;2024-03-08T12:46:05;12.60;;;8.20;;
81996;SDS011;71500;50.806;8.774;2024-03-08T12:48:37;14.20;;;8.70;;
81996;SDS011;71500;50.806;8.774;2024-03-08T12:51:10;12.60;;;8.70;;
81996;SDS011;71500;50.806;8.774;2024-03-08T12:53:41;10.00;;;7.30;;
81996;SDS011;71500;50.806;8.774;2024-03-08T12:58:49;11.90;;;7.40;;
81996;SDS011;71500;50.806;8.774;2024-03-08T13:01:22;13.00;;;8.80;;
81996;SDS011;71500;50.806;8.774;2024-03-08T13:03:53;13.80;;;8.70;;
81996;SDS011;71500;50.806;8.774;2024-03-08T13:06:25;11.80;;;8.00;;
81996;SDS011;71500;50.806;8.774;2024-03-08T13:08:57;12.80;;;8.40;;
81996;SDS011;71500;50.806;8.774;2024-03-08T13:11:33;11.60;;;7.80;;
81996;SDS011;71500;50.806;8.774;2024-03-08T13:14:06;12.60;;;8.00;;
81996;SDS011;71500;50.806;8.774;2024-03-08T13:16:39;10.50;;;8.30;;
81996;SDS011;71500;50.806;8.774;2024-03-08T13:19:11;9.70;;;6.80;;
81996;SDS011;71500;50.806;8.774;2024-03-08T13:21:43;10.50;;;7.50;;
81996;SDS011;71500;50.806;8.774;2024-03-08T13:24:18;9.70;;;7.00;;
81996;SDS011;71500;50.806;8.774;2024-03-08T13:26:50;9.40;;;6.80;;
81996;SDS011;71500;50.806;8.774;2024-03-08T13:29:22;9.50;;;6.30;;
81996;SDS011;71500;50.806;8.774;2024-03-08T13:31:53;14.00;;;9.40;;
81996;SDS011;71500;50.806;8.774;2024-03-08T13:34:29;11.00;;;7.00;;
81996;SDS011;71500;50.806;8.774;2024-03-08T13:37:04;11.30;;;7.00;;
81996;SDS011;71500;50.806;8.774;2024-03-08T13:39:35;9.90;;;7.10;;
81996;SDS011;71500;50.806;8.774;2024-03-08T13:42:12;10.20;;;7.60;;
81996;SDS011;71500;50.806;8.774;2024-03-08T13:44:45;14.00;;;8.20;;
81996;SDS011;71500;50.806;8.774;2024-03-08T13:47:17;10.90;;;7.40;;
81996;SDS011;71500;50.806;8.774;2024-03-08T13:49:49;10.10;;;6.90;;
81996;SDS011;71500;50.806;8.774;2024-03-08T13:52:20;10.40;;;6.80;;
81996;SDS011;71500;50.806;8.774;2024-03-08T13:54:54;12.60;;;8.00;;
81996;SDS011;71500;50.806;8.774;2024-03-08T13:57:25;10.60;;;7.20;;
81996;SDS011;71500;50.806;8.774;2024-03-08T13:59:57;10.20;;;7.90;;
81996;SDS011;71500;50.806;8.774;2024-03-08T14:02:28;10.50;;;6.80;;
81996;SDS011;71500;50.806;8.774;2024-03-08T14:05:00;10.30;;;7.10;;
81996;SDS011;71500;50.806;8.774;2024-03-08T14:07:32;11.30;;;7.60;;
81996;SDS011;71500;50.806;8.774;2024-03-08T14:10:04;9.60;;;6.80;;
81996;SDS011;71500;50.806;8.774;2024-03-08T14:12:38;9.70;;;7.00;;
81996;SDS011;71500;50.806;8.774;2024-03-08T14:15:11;12.10;;;8.50;;
81996;SDS011;71500;50.806;8.774;2024-03-08T14:17:43;12.30;;;9.90;;
81996;SDS011;71500;50.806;8.774;2024-03-08T14:20:16;9.60;;;7.70;;
81996;SDS011;71500;50.806;8.774;2024-03-08T14:22:47;10.50;;;8.00;;
81996;SDS011;71500;50.806;8.774;2024-03-08T14:25:20;9.40;;;7.30;;
81996;SDS011;71500;50.806;8.774;2024-03-08T14:30:27;9.40;;;6.90;;
81996;SDS011;71500;50.806;8.774;2024-03-08T14:33:04;10.70;;;7.10;;
81996;SDS011;71500;50.806;8.774;2024-03-08T14:35:40;9.80;;;6.60;;
81996;SDS011;71500;50.806;8.774;2024-03-08T14:38:12;10.70;;;7.10;;
81996;SDS011;71500;50.806;8.774;2024-03-08T14:40:45;9.80;;;8.00;;
81996;SDS011;71500;50.806;8.774;2024-03-08T14:43:17;10.60;;;7.30;;
81996;SDS011;71500;50.806;8.774;2024-03-08T14:45:50;12.60;;;8.30;;
81996;SDS011;71500;50.806;8.774;2024-03-08T14:48:21;11.40;;;8.00;;
81996;SDS011;71500;50.806;8.774;2024-03-08T14:50:53;10.00;;;6.60;;
81996;SDS011;71500;50.806;8.774;2024-03-08T14:53:24;10.40;;;6.90;;
81996;SDS011;71500;50.806;8.774;2024-03-08T14:55:56;11.50;;;7.30;;
81996;SDS011;71500;50.806;8.774;2024-03-08T14:58:28;11.10;;;7.80;;
81996;SDS011;71500;50.806;8.774;2024-03-08T15:01:00;12.40;;;7.70;;
81996;SDS011;71500;50.806;8.774;2024-03-08T15:03:32;12.40;;;7.50;;
81996;SDS011;71500;50.806;8.774;2024-03-08T15:06:05;11.00;;;7.60;;
81996;SDS011;71500;50.806;8.774;2024-03-08T15:08:39;11.10;;;7.30;;
81996;SDS011;71500;50.806;8.774;2024-03-08T15:11:11;10.10;;;7.60;;
81996;SDS011;71500;50.806;8.774;2024-03-08T15:13:50;10.30;;;7.30;;
81996;SDS011;71500;50.806;8.774;2024-03-08T15:16:22;14.10;;;8.40;;
81996;SDS011;71500;50.806;8.774;2024-03-08T15:18:54;12.40;;;7.60;;